Time;durP1;ratioP1;P1;durP2;ratioP2;P2;SDS_P1;SDS_P2;PMS_P1;PMS_P2;Temp;Humidity;BMP_temperature;BMP_pressure;BME280_temperature;BME280_humidity;BME280_pressure;Samples;Min_cycle;Max_cycle;Signal;HPM_P1;HPM_P2
2023/01/03 00:00:50;;;;;;;3.22;1.35;;;;;;;;;;5058087;28;20111;-69
2023/01/03 00:03:16;;;;;;;7.80;1.80;;;;;;;;;;5103859;27;20075;-69
2023/01/03 00:05:43;;;;;;;5.65;1.77;;;;;;;;;;5075928;28;20043;-69
2023/01/03 00:08:09;;;;;;;4.78;2.13;;;;;;;;;;5073535;28;20036;-69
2023/01/03 00:10:35;;;;;;;9.48;3.03;;;;;;;;;;5073383;28;20051;-69
2023/01/03 00:13:01;;;;;;;6.25;2.13;;;;;;;;;;5072632;28;20046;-70
2023/01/03 00:15:28;;;;;;;4.80;2.13;;;;;;;;;;5078749;28;20078;-69
2023/01/03 00:17:55;;;;;;;6.80;2.42;;;;;;;;;;5069935;28;20051;-68
2023/01/03 00:20:21;;;;;;;5.90;1.73;;;;;;;;;;5083565;28;20044;-69
2023/01/03 00:22:48;;;;;;;10.35;2.30;;;;;;;;;;5078698;28;20047;-69
2023/01/03 00:25:14;;;;;;;5.22;1.83;;;;;;;;;;5072322;28;20032;-69
2023/01/03 00:27:41;;;;;;;4.65;1.83;;;;;;;;;;5075240;28;20056;-69
2023/01/03 00:30:08;;;;;;;2.40;1.95;;;;;;;;;;5074348;28;20056;-69
2023/01/03 00:32:34;;;;;;;7.32;2.45;;;;;;;;;;5071098;28;20066;-69
2023/01/03 00:35:00;;;;;;;4.28;1.85;;;;;;;;;;5054096;28;20040;-69
2023/01/03 00:37:26;;;;;;;2.63;1.45;;;;;;;;;;5088716;28;20116;-69
2023/01/03 00:39:52;;;;;;;6.03;1.85;;;;;;;;;;5078909;28;20308;-69
2023/01/03 00:42:18;;;;;;;6.15;1.70;;;;;;;;;;5096398;28;20042;-69
2023/01/03 00:44:45;;;;;;;5.45;1.88;;;;;;;;;;5078553;28;20036;-69
2023/01/03 00:47:11;;;;;;;4.47;1.90;;;;;;;;;;5096110;28;20090;-68
2023/01/03 00:49:37;;;;;;;5.20;2.17;;;;;;;;;;5075630;28;20036;-69
2023/01/03 00:52:03;;;;;;;3.42;2.05;;;;;;;;;;5077704;28;20043;-69
2023/01/03 00:54:29;;;;;;;3.65;1.75;;;;;;;;;;5076853;28;20051;-69
2023/01/03 00:56:55;;;;;;;4.60;1.83;;;;;;;;;;5074176;28;20555;-69
2023/01/03 00:59:22;;;;;;;4.57;1.60;;;;;;;;;;5091401;28;20034;-69
2023/01/03 01:01:50;;;;;;;6.55;2.60;;;;;;;;;;5078968;28;20504;-69
2023/01/03 01:04:16;;;;;;;4.50;1.63;;;;;;;;;;5073095;28;20090;-68
2023/01/03 01:06:43;;;;;;;5.65;2.08;;;;;;;;;;5078758;28;20047;-69
2023/01/03 01:09:14;;;;;;;7.40;2.38;;;;;;;;;;5073104;28;20043;-69
2023/01/03 01:11:41;;;;;;;8.48;2.45;;;;;;;;;;5100439;27;20044;-68
2023/01/03 01:14:18;;;;;;;4.72;1.73;;;;;;;;;;5091414;28;20051;-69
2023/01/03 01:16:49;;;;;;;6.97;2.60;;;;;;;;;;5076581;28;20040;-69
2023/01/03 01:19:15;;;;;;;6.22;2.45;;;;;;;;;;5071803;28;20481;-69
2023/01/03 01:21:41;;;;;;;5.47;2.15;;;;;;;;;;5056830;28;20036;-69
2023/01/03 01:24:08;;;;;;;3.30;1.90;;;;;;;;;;5078769;28;20083;-69
2023/01/03 01:26:34;;;;;;;3.60;1.95;;;;;;;;;;5087635;28;20051;-69
2023/01/03 01:29:00;;;;;;;5.05;2.65;;;;;;;;;;5051419;28;20040;-69
2023/01/03 01:31:26;;;;;;;4.97;2.05;;;;;;;;;;5027984;28;20533;-69
2023/01/03 01:33:53;;;;;;;3.70;1.80;;;;;;;;;;5073057;28;20120;-69
2023/01/03 01:36:22;;;;;;;7.18;2.10;;;;;;;;;;5073415;28;20853;-68
2023/01/03 01:38:52;;;;;;;6.85;2.13;;;;;;;;;;5059120;28;20482;-68
2023/01/03 01:44:36;;;;;;;6.32;2.72;;;;;;;;;;5068033;28;20070;-69
2023/01/03 01:46:50;;;;;;;5.88;1.88;;;;;;;;;;5088873;28;20071;-69
2023/01/03 01:49:23;;;;;;;5.50;2.22;;;;;;;;;;5074643;28;20059;-68
2023/01/03 01:51:49;;;;;;;3.50;1.77;;;;;;;;;;5069043;28;20043;-68
2023/01/03 01:54:15;;;;;;;6.63;2.00;;;;;;;;;;5070504;28;20417;-69
2023/01/03 01:56:47;;;;;;;10.40;2.50;;;;;;;;;;5069850;28;20044;-69
2023/01/03 01:59:13;;;;;;;5.43;2.05;;;;;;;;;;5066920;28;20481;-69
2023/01/03 02:01:40;;;;;;;7.43;2.33;;;;;;;;;;5071929;28;20098;-68
2023/01/03 02:04:09;;;;;;;4.38;2.88;;;;;;;;;;5077931;28;20352;-69
2023/01/03 02:06:35;;;;;;;7.35;2.33;;;;;;;;;;5074878;28;20096;-69
2023/01/03 02:09:01;;;;;;;8.02;2.17;;;;;;;;;;5062449;28;20513;-68
2023/01/03 02:14:40;;;;;;;6.07;1.90;;;;;;;;;;5067417;28;20043;-68
2023/01/03 02:17:13;;;;;;;6.00;2.13;;;;;;;;;;5093064;28;20048;-69
2023/01/03 02:19:59;;;;;;;8.25;2.90;;;;;;;;;;5081042;28;20095;-68
2023/01/03 02:22:28;;;;;;;4.32;1.75;;;;;;;;;;5077968;28;20035;-68
2023/01/03 02:25:13;;;;;;;5.68;2.03;;;;;;;;;;5064447;28;20047;-68
2023/01/03 02:27:46;;;;;;;7.85;2.42;;;;;;;;;;5071048;28;20052;-68
2023/01/03 02:30:27;;;;;;;8.30;1.92;;;;;;;;;;5092297;28;20055;-69
2023/01/03 02:32:53;;;;;;;5.97;1.90;;;;;;;;;;5077758;28;20374;-68
2023/01/03 02:35:25;;;;;;;5.15;2.25;;;;;;;;;;5082789;28;20647;-69
2023/01/03 02:37:58;;;;;;;5.63;2.47;;;;;;;;;;5072607;28;20084;-68
2023/01/03 02:40:42;;;;;;;4.15;1.88;;;;;;;;;;5088684;28;20395;-69
2023/01/03 02:43:14;;;;;;;10.85;2.45;;;;;;;;;;5072788;28;20044;-69
2023/01/03 02:45:49;;;;;;;7.10;2.55;;;;;;;;;;5078580;28;20071;-68
2023/01/03 02:48:18;;;;;;;7.97;2.65;;;;;;;;;;5088596;28;20089;-68
2023/01/03 02:50:48;;;;;;;4.35;2.03;;;;;;;;;;5071856;28;20051;-68
2023/01/03 02:53:18;;;;;;;6.05;2.25;;;;;;;;;;5073077;28;20032;-69
2023/01/03 02:55:48;;;;;;;3.92;2.30;;;;;;;;;;5107077;27;20123;-69
2023/01/03 02:58:21;;;;;;;4.90;2.65;;;;;;;;;;5071503;28;20069;-69
2023/01/03 03:00:49;;;;;;;4.97;2.47;;;;;;;;;;5070615;28;20036;-69
2023/01/03 03:03:17;;;;;;;3.55;2.33;;;;;;;;;;5073428;28;20036;-69
2023/01/03 03:05:52;;;;;;;9.35;3.53;;;;;;;;;;5074530;28;20048;-69
2023/01/03 03:08:18;;;;;;;3.75;2.00;;;;;;;;;;5075153;28;20508;-68
2023/01/03 03:13:33;;;;;;;4.45;1.67;;;;;;;;;;5070011;28;20040;-69
2023/01/03 03:15:59;;;;;;;9.35;3.78;;;;;;;;;;5073966;28;20079;-68
2023/01/03 03:18:49;;;;;;;4.72;2.33;;;;;;;;;;5074906;28;20039;-69
2023/01/03 03:26:52;;;;;;;5.72;2.47;;;;;;;;;;5076874;28;20091;-69
2023/01/03 03:29:18;;;;;;;4.72;1.83;;;;;;;;;;5107065;27;20133;-69
2023/01/03 03:31:46;;;;;;;5.75;2.20;;;;;;;;;;5089991;28;20135;-68
2023/01/03 03:34:24;;;;;;;3.97;1.92;;;;;;;;;;5067009;28;20478;-68
2023/01/03 03:36:56;;;;;;;4.68;2.17;;;;;;;;;;5077418;28;20520;-69
2023/01/03 03:45:10;;;;;;;5.07;2.15;;;;;;;;;;5091371;28;20035;-68
2023/01/03 03:47:37;;;;;;;5.17;2.63;;;;;;;;;;5069146;28;20425;-68
2023/01/03 03:50:11;;;;;;;5.25;2.20;;;;;;;;;;5073505;28;20051;-68
2023/01/03 03:52:38;;;;;;;4.88;2.15;;;;;;;;;;5075470;28;20054;-68
2023/01/03 03:55:12;;;;;;;10.80;2.95;;;;;;;;;;5088463;28;20051;-68
2023/01/03 03:57:43;;;;;;;7.63;3.10;;;;;;;;;;5079151;28;20382;-68
2023/01/03 04:00:20;;;;;;;6.07;2.63;;;;;;;;;;5092401;28;20668;-68
2023/01/03 04:02:46;;;;;;;8.02;3.20;;;;;;;;;;5087187;28;20036;-68
2023/01/03 04:05:16;;;;;;;4.82;2.70;;;;;;;;;;5078522;28;20435;-68
2023/01/03 04:07:42;;;;;;;5.63;2.78;;;;;;;;;;5090553;28;20040;-68
2023/01/03 04:10:09;;;;;;;5.35;3.00;;;;;;;;;;5066208;28;20524;-68
2023/01/03 04:12:35;;;;;;;4.32;2.10;;;;;;;;;;5077184;28;20082;-68
2023/01/03 04:15:02;;;;;;;4.22;2.50;;;;;;;;;;5076424;28;20069;-68
2023/01/03 04:17:29;;;;;;;5.95;2.90;;;;;;;;;;5069107;28;20289;-69
2023/01/03 04:19:55;;;;;;;4.63;2.70;;;;;;;;;;5077733;28;20367;-68
2023/01/03 04:22:21;;;;;;;5.65;2.60;;;;;;;;;;5080292;28;20067;-68
2023/01/03 04:24:47;;;;;;;6.30;2.83;;;;;;;;;;5072918;28;20032;-68
2023/01/03 04:27:13;;;;;;;4.00;2.67;;;;;;;;;;5050829;28;20493;-68
2023/01/03 04:29:39;;;;;;;5.38;3.10;;;;;;;;;;5075241;28;20059;-68
2023/01/03 04:32:06;;;;;;;7.07;3.70;;;;;;;;;;5076765;28;20040;-68
2023/01/03 04:34:32;;;;;;;5.47;3.03;;;;;;;;;;5075907;28;20035;-68
2023/01/03 04:36:58;;;;;;;8.05;2.75;;;;;;;;;;5097059;28;20558;-68
2023/01/03 04:39:25;;;;;;;7.97;3.15;;;;;;;;;;5062945;28;20393;-68
2023/01/03 04:41:51;;;;;;;5.57;2.55;;;;;;;;;;5076064;28;20075;-68
2023/01/03 04:44:17;;;;;;;7.75;3.13;;;;;;;;;;5076159;28;20039;-68
2023/01/03 04:46:43;;;;;;;6.30;2.80;;;;;;;;;;5076374;28;20087;-68
2023/01/03 04:49:10;;;;;;;7.75;3.20;;;;;;;;;;5108646;27;20179;-68
2023/01/03 04:51:36;;;;;;;6.85;3.30;;;;;;;;;;5075282;28;20036;-68
2023/01/03 04:54:02;;;;;;;7.07;3.63;;;;;;;;;;5074677;28;20039;-68
2023/01/03 04:56:29;;;;;;;5.72;3.75;;;;;;;;;;5078179;28;20054;-68
2023/01/03 04:58:56;;;;;;;6.40;3.33;;;;;;;;;;5068459;28;20036;-68
2023/01/03 05:01:22;;;;;;;9.32;3.28;;;;;;;;;;5068337;28;20077;-68
2023/01/03 05:03:48;;;;;;;24.95;3.38;;;;;;;;;;5062180;28;20047;-68
2023/01/03 05:06:15;;;;;;;9.63;3.40;;;;;;;;;;5070379;28;20036;-68
2023/01/03 05:08:43;;;;;;;4.10;3.03;;;;;;;;;;5079626;28;20044;-68
2023/01/03 05:11:09;;;;;;;6.57;3.30;;;;;;;;;;5077178;28;20130;-68
2023/01/03 05:13:35;;;;;;;5.95;3.05;;;;;;;;;;5060484;28;20458;-68
2023/01/03 05:16:06;;;;;;;5.25;3.03;;;;;;;;;;5057789;28;20040;-68
2023/01/03 05:18:32;;;;;;;6.15;3.40;;;;;;;;;;5102968;27;20043;-68
2023/01/03 05:26:33;;;;;;;7.32;4.28;;;;;;;;;;5090803;28;20106;-68
2023/01/03 05:29:00;;;;;;;5.55;3.95;;;;;;;;;;5091312;28;20052;-69
2023/01/03 05:31:26;;;;;;;6.07;3.65;;;;;;;;;;5057629;28;20035;-68
2023/01/03 05:33:52;;;;;;;6.47;3.42;;;;;;;;;;5077947;28;20060;-68
2023/01/03 05:36:18;;;;;;;6.50;4.45;;;;;;;;;;5090124;28;20054;-68
2023/01/03 05:38:44;;;;;;;7.30;3.85;;;;;;;;;;5044207;28;20408;-68
2023/01/03 05:41:12;;;;;;;11.23;4.28;;;;;;;;;;5079336;28;20328;-68
2023/01/03 05:43:38;;;;;;;9.43;4.22;;;;;;;;;;5107120;27;20035;-69
2023/01/03 05:46:05;;;;;;;6.35;3.92;;;;;;;;;;5040258;28;20085;-68
2023/01/03 05:48:31;;;;;;;8.93;4.25;;;;;;;;;;5090899;28;20032;-68
2023/01/03 05:50:57;;;;;;;6.07;3.67;;;;;;;;;;5061672;28;20046;-68
2023/01/03 05:53:24;;;;;;;6.53;4.43;;;;;;;;;;5075511;28;20047;-68
2023/01/03 05:55:51;;;;;;;5.32;3.83;;;;;;;;;;5077302;28;20055;-68
2023/01/03 05:58:17;;;;;;;10.48;4.55;;;;;;;;;;5083492;28;20393;-68
2023/01/03 06:00:43;;;;;;;6.57;4.05;;;;;;;;;;5057342;28;20044;-68
2023/01/03 06:03:09;;;;;;;7.68;4.78;;;;;;;;;;5066514;28;20513;-68
2023/01/03 06:05:35;;;;;;;8.25;5.00;;;;;;;;;;5097421;28;20036;-68
2023/01/03 06:08:01;;;;;;;9.48;5.50;;;;;;;;;;5111090;27;20036;-68
2023/01/03 06:10:27;;;;;;;10.38;5.68;;;;;;;;;;5071790;28;20125;-68
2023/01/03 06:12:53;;;;;;;8.98;5.35;;;;;;;;;;5067309;28;20031;-68
2023/01/03 06:15:20;;;;;;;14.18;7.28;;;;;;;;;;5094000;28;20447;-68
2023/01/03 06:17:56;;;;;;;12.70;7.47;;;;;;;;;;5072063;28;20055;-68
2023/01/03 06:20:23;;;;;;;9.38;5.85;;;;;;;;;;5051723;28;20036;-68
2023/01/03 06:22:49;;;;;;;12.50;7.03;;;;;;;;;;5081874;28;20050;-68
2023/01/03 06:25:15;;;;;;;11.55;6.28;;;;;;;;;;5072649;28;20539;-68
2023/01/03 06:27:41;;;;;;;13.13;7.00;;;;;;;;;;5075854;28;20059;-68
2023/01/03 06:30:07;;;;;;;9.90;6.85;;;;;;;;;;5090885;28;20134;-68
2023/01/03 06:32:34;;;;;;;12.68;7.95;;;;;;;;;;5106187;27;20032;-68
2023/01/03 06:35:00;;;;;;;14.35;9.05;;;;;;;;;;5061158;28;20359;-68
2023/01/03 06:37:26;;;;;;;14.48;9.60;;;;;;;;;;5084759;28;20040;-68
2023/01/03 06:39:52;;;;;;;13.25;9.07;;;;;;;;;;5067875;28;20110;-68
2023/01/03 06:53:19;;;;;;;18.75;9.35;;;;;;;;;;5067267;28;20055;-68
2023/01/03 06:55:45;;;;;;;14.43;9.38;;;;;;;;;;5063892;28;20055;-68
2023/01/03 06:58:12;;;;;;;17.02;10.88;;;;;;;;;;5096460;28;20497;-68
2023/01/03 07:00:40;;;;;;;19.95;11.60;;;;;;;;;;5080667;28;20420;-68
2023/01/03 07:03:06;;;;;;;14.57;10.48;;;;;;;;;;5072765;28;20038;-68
2023/01/03 07:05:32;;;;;;;16.25;11.85;;;;;;;;;;5063399;28;20082;-68
2023/01/03 07:07:58;;;;;;;20.25;12.13;;;;;;;;;;5085500;28;20065;-68
2023/01/03 07:10:24;;;;;;;19.98;11.68;;;;;;;;;;5066635;28;20140;-67
2023/01/03 07:15:35;;;;;;;20.92;11.45;;;;;;;;;;5070008;28;20113;-68
2023/01/03 07:18:01;;;;;;;19.58;12.07;;;;;;;;;;5084482;28;20089;-67
2023/01/03 07:20:27;;;;;;;17.75;11.23;;;;;;;;;;5099554;27;20104;-68
2023/01/03 07:22:53;;;;;;;25.23;12.63;;;;;;;;;;5068785;28;20048;-68
2023/01/03 07:25:20;;;;;;;19.92;12.68;;;;;;;;;;5070660;28;20047;-68
2023/01/03 07:27:54;;;;;;;17.85;11.40;;;;;;;;;;5085702;28;20094;-68
2023/01/03 07:30:20;;;;;;;21.35;14.07;;;;;;;;;;5105239;27;20051;-68
2023/01/03 07:32:46;;;;;;;17.60;11.45;;;;;;;;;;5101031;27;20097;-67
2023/01/03 07:35:12;;;;;;;20.15;12.35;;;;;;;;;;5086003;28;20067;-67
2023/01/03 07:37:38;;;;;;;23.35;13.63;;;;;;;;;;5084269;28;20774;-68
2023/01/03 07:40:05;;;;;;;29.38;13.50;;;;;;;;;;5071912;28;20116;-68
2023/01/03 07:45:15;;;;;;;22.08;13.98;;;;;;;;;;5085384;28;20087;-67
2023/01/03 07:47:45;;;;;;;20.55;13.65;;;;;;;;;;5067115;28;20047;-68
2023/01/03 07:50:12;;;;;;;19.50;12.48;;;;;;;;;;5087999;28;20044;-67
2023/01/03 07:52:38;;;;;;;20.48;13.50;;;;;;;;;;5073951;28;20047;-68
2023/01/03 07:55:04;;;;;;;20.50;13.68;;;;;;;;;;5067331;28;20493;-67
2023/01/03 07:57:30;;;;;;;21.88;13.68;;;;;;;;;;5071859;28;20044;-68
2023/01/03 07:59:56;;;;;;;28.20;16.40;;;;;;;;;;5085044;28;20553;-68
2023/01/03 08:02:22;;;;;;;20.27;14.00;;;;;;;;;;5095831;28;20043;-68
2023/01/03 08:04:49;;;;;;;20.52;13.00;;;;;;;;;;5069264;28;20063;-67
2023/01/03 08:07:15;;;;;;;20.25;12.70;;;;;;;;;;5076748;28;20573;-68
2023/01/03 08:15:10;;;;;;;23.67;12.95;;;;;;;;;;5070199;28;20051;-68
2023/01/03 08:17:36;;;;;;;20.27;13.38;;;;;;;;;;5097590;28;20474;-67
2023/01/03 08:20:03;;;;;;;22.38;12.88;;;;;;;;;;5094006;28;20048;-67
2023/01/03 08:22:29;;;;;;;21.05;14.60;;;;;;;;;;5083999;28;20059;-67
2023/01/03 08:24:55;;;;;;;23.60;15.27;;;;;;;;;;5053324;28;20039;-68
2023/01/03 08:27:21;;;;;;;21.83;14.60;;;;;;;;;;5055475;28;20409;-67
2023/01/03 08:29:48;;;;;;;22.92;15.68;;;;;;;;;;5061063;28;20051;-68
2023/01/03 08:32:15;;;;;;;22.33;13.40;;;;;;;;;;5088235;28;20560;-68
2023/01/03 08:34:43;;;;;;;23.50;14.68;;;;;;;;;;5066420;28;20069;-67
2023/01/03 08:37:10;;;;;;;22.48;15.68;;;;;;;;;;5064063;28;20043;-67
2023/01/03 08:39:54;;;;;;;21.48;14.23;;;;;;;;;;5085094;28;20254;-68
2023/01/03 08:42:22;;;;;;;18.67;13.48;;;;;;;;;;5068322;28;20039;-68
2023/01/03 08:44:49;;;;;;;21.05;14.55;;;;;;;;;;5070289;28;20126;-67
2023/01/03 08:47:15;;;;;;;30.65;15.77;;;;;;;;;;5062155;28;20097;-68
2023/01/03 08:49:42;;;;;;;21.45;13.90;;;;;;;;;;5057363;28;20047;-67
2023/01/03 08:52:08;;;;;;;22.67;14.80;;;;;;;;;;5050450;28;20524;-67
2023/01/03 08:54:34;;;;;;;27.45;15.35;;;;;;;;;;5050045;28;20044;-68
2023/01/03 08:57:00;;;;;;;81.07;18.48;;;;;;;;;;5055708;28;20045;-68
2023/01/03 08:59:26;;;;;;;54.42;17.02;;;;;;;;;;5066219;28;20164;-68
2023/01/03 09:01:56;;;;;;;32.67;14.35;;;;;;;;;;5049637;28;20553;-68
2023/01/03 09:04:23;;;;;;;132.38;24.13;;;;;;;;;;5077902;28;20039;-67
2023/01/03 09:06:49;;;;;;;82.60;18.88;;;;;;;;;;5089988;28;20055;-67
2023/01/03 09:09:15;;;;;;;88.82;19.02;;;;;;;;;;5067809;28;20497;-67
2023/01/03 09:11:41;;;;;;;156.15;24.92;;;;;;;;;;5067931;28;20131;-67
2023/01/03 09:14:07;;;;;;;74.65;20.15;;;;;;;;;;5065784;28;20105;-67
2023/01/03 09:16:33;;;;;;;78.13;18.33;;;;;;;;;;5055212;28;20035;-67
2023/01/03 09:19:01;;;;;;;85.20;18.50;;;;;;;;;;5074998;28;20050;-68
2023/01/03 09:21:28;;;;;;;35.63;13.90;;;;;;;;;;5076165;28;20478;-67
2023/01/03 09:23:55;;;;;;;38.15;14.00;;;;;;;;;;5078557;28;20036;-67
2023/01/03 09:26:21;;;;;;;40.72;13.60;;;;;;;;;;5084904;28;20047;-67
2023/01/03 09:28:47;;;;;;;52.17;14.52;;;;;;;;;;5054152;28;20489;-67
2023/01/03 09:31:14;;;;;;;38.03;12.60;;;;;;;;;;5077192;28;20044;-68
2023/01/03 09:33:40;;;;;;;47.05;12.70;;;;;;;;;;5053523;28;20048;-67
2023/01/03 09:36:06;;;;;;;23.75;12.60;;;;;;;;;;5058219;28;20040;-67
2023/01/03 09:38:32;;;;;;;58.25;15.43;;;;;;;;;;5077498;28;20050;-68
2023/01/03 09:41:04;;;;;;;41.35;13.98;;;;;;;;;;5071480;28;20047;-67
2023/01/03 09:43:45;;;;;;;37.83;15.23;;;;;;;;;;5090515;28;20036;-68
2023/01/03 09:46:15;;;;;;;23.73;12.98;;;;;;;;;;5054298;28;20048;-68
2023/01/03 09:48:41;;;;;;;44.30;15.85;;;;;;;;;;5074628;28;20058;-67
2023/01/03 10:03:42;;;;;;;65.47;17.20;;;;;;;;;;5065983;28;20393;-68
2023/01/03 10:05:04;;;;;;;31.52;17.60;;;;;;;;;;5095320;27;20058;-68
2023/01/03 10:07:49;;;;;;;39.50;16.20;;;;;;;;;;5084472;28;20090;-67
2023/01/03 10:10:20;;;;;;;46.35;19.60;;;;;;;;;;5058267;28;20045;-67
2023/01/03 10:12:47;;;;;;;36.80;18.75;;;;;;;;;;5074022;28;20043;-67
2023/01/03 10:15:34;;;;;;;38.00;19.13;;;;;;;;;;5075209;28;20044;-68
2023/01/03 10:18:07;;;;;;;78.28;24.15;;;;;;;;;;5052328;28;20044;-67
2023/01/03 10:20:39;;;;;;;37.75;18.30;;;;;;;;;;5051516;28;20497;-67
2023/01/03 10:23:07;;;;;;;43.45;21.40;;;;;;;;;;5079033;28;20032;-68
2023/01/03 10:25:36;;;;;;;36.03;19.38;;;;;;;;;;5102633;27;20266;-68
2023/01/03 10:28:09;;;;;;;34.53;19.17;;;;;;;;;;5063858;28;20048;-68
2023/01/03 10:30:53;;;;;;;25.63;17.80;;;;;;;;;;5067840;28;20497;-68
2023/01/03 10:33:31;;;;;;;31.27;19.02;;;;;;;;;;5079767;28;20482;-68
2023/01/03 10:35:57;;;;;;;30.55;20.75;;;;;;;;;;5098854;28;20058;-68
2023/01/03 10:38:24;;;;;;;38.00;22.63;;;;;;;;;;5072590;28;20045;-68
2023/01/03 10:41:01;;;;;;;37.35;21.75;;;;;;;;;;5066480;28;20036;-67
2023/01/03 10:43:39;;;;;;;48.03;21.95;;;;;;;;;;5077969;28;20379;-68
2023/01/03 10:46:06;;;;;;;36.10;22.70;;;;;;;;;;5057158;28;20039;-68
2023/01/03 10:48:35;;;;;;;55.42;27.38;;;;;;;;;;5069926;28;20080;-68
2023/01/03 10:51:03;;;;;;;62.55;32.00;;;;;;;;;;5061320;28;20044;-68
2023/01/03 10:53:30;;;;;;;42.42;25.45;;;;;;;;;;5063462;28;20035;-68
2023/01/03 10:55:57;;;;;;;42.75;26.23;;;;;;;;;;5068441;28;20654;-68
2023/01/03 10:58:27;;;;;;;49.92;27.58;;;;;;;;;;5069258;28;20040;-67
2023/01/03 11:01:08;;;;;;;45.05;28.90;;;;;;;;;;5068008;28;20043;-67
2023/01/03 11:03:36;;;;;;;44.05;26.17;;;;;;;;;;5072213;28;20398;-68
2023/01/03 11:06:02;;;;;;;51.05;30.80;;;;;;;;;;5047711;28;20250;-68
2023/01/03 11:08:37;;;;;;;49.08;28.88;;;;;;;;;;5089508;27;20892;-68
2023/01/03 11:11:04;;;;;;;64.00;35.25;;;;;;;;;;5042797;28;20040;-68
2023/01/03 11:13:30;;;;;;;53.63;31.02;;;;;;;;;;5090271;27;20040;-68
2023/01/03 11:15:57;;;;;;;61.83;33.70;;;;;;;;;;5084309;28;20038;-68
2023/01/03 11:18:26;;;;;;;59.90;34.10;;;;;;;;;;5072072;28;20122;-68
2023/01/03 11:20:58;;;;;;;56.38;31.80;;;;;;;;;;5100909;28;20506;-68
2023/01/03 11:23:43;;;;;;;64.07;34.78;;;;;;;;;;5087227;28;20036;-68
2023/01/03 11:26:09;;;;;;;54.00;33.78;;;;;;;;;;5101029;28;20509;-68
2023/01/03 11:28:39;;;;;;;62.65;34.40;;;;;;;;;;5069526;28;20063;-68
2023/01/03 11:31:18;;;;;;;66.57;36.83;;;;;;;;;;5087792;28;20055;-68
2023/01/03 11:33:44;;;;;;;69.78;37.42;;;;;;;;;;5067809;28;20512;-68
2023/01/03 11:36:10;;;;;;;68.85;39.63;;;;;;;;;;5088815;28;20051;-68
2023/01/03 11:38:39;;;;;;;70.57;39.78;;;;;;;;;;5070580;28;20040;-68
2023/01/03 11:41:15;;;;;;;70.82;40.55;;;;;;;;;;5067739;28;20032;-68
2023/01/03 11:43:41;;;;;;;68.85;40.30;;;;;;;;;;5090151;28;20044;-68
2023/01/03 11:46:15;;;;;;;71.75;39.60;;;;;;;;;;5065488;28;20036;-67
2023/01/03 11:48:48;;;;;;;67.72;34.65;;;;;;;;;;5067011;28;20036;-68
2023/01/03 11:51:33;;;;;;;66.03;37.40;;;;;;;;;;5091115;28;20047;-68
2023/01/03 11:54:00;;;;;;;61.95;38.05;;;;;;;;;;5062836;28;20132;-67
2023/01/03 11:56:38;;;;;;;71.70;37.70;;;;;;;;;;5068860;28;20040;-68
2023/01/03 11:59:11;;;;;;;60.97;36.70;;;;;;;;;;5074777;28;20191;-68
2023/01/03 12:01:45;;;;;;;58.65;35.38;;;;;;;;;;5080366;28;20150;-68
2023/01/03 12:04:30;;;;;;;64.97;37.47;;;;;;;;;;5102891;27;20490;-68
2023/01/03 12:06:59;;;;;;;66.00;38.25;;;;;;;;;;5068260;28;20304;-68
2023/01/03 12:09:28;;;;;;;67.85;38.45;;;;;;;;;;5091840;28;20036;-68
2023/01/03 12:12:09;;;;;;;70.85;38.63;;;;;;;;;;5060370;28;20051;-68
2023/01/03 12:14:43;;;;;;;68.15;37.85;;;;;;;;;;5058317;28;20048;-68
2023/01/03 12:17:23;;;;;;;59.65;36.15;;;;;;;;;;5083093;28;20489;-68
2023/01/03 12:19:56;;;;;;;63.08;39.13;;;;;;;;;;5080802;28;20063;-68
2023/01/03 12:22:22;;;;;;;;;;;;;;;;;;5053946;28;20044;-68
2023/01/03 12:24:49;;;;;;;60.00;33.92;;;;;;;;;;5105639;28;20304;-69
2023/01/03 12:27:19;;;;;;;55.30;35.38;;;;;;;;;;5063462;28;20109;-68
2023/01/03 12:29:48;;;;;;;56.55;35.83;;;;;;;;;;5102260;28;20071;-68
2023/01/03 12:32:16;;;;;;;66.60;38.00;;;;;;;;;;5056884;28;20036;-68
2023/01/03 12:34:46;;;;;;;62.13;36.03;;;;;;;;;;5112575;27;20047;-68
2023/01/03 12:37:18;;;;;;;65.30;36.83;;;;;;;;;;5073685;28;20469;-68
2023/01/03 12:39:55;;;;;;;60.42;33.97;;;;;;;;;;5073089;28;20040;-68
2023/01/03 12:42:21;;;;;;;62.17;35.95;;;;;;;;;;5090844;28;20032;-69
2023/01/03 12:44:49;;;;;;;50.45;31.48;;;;;;;;;;5076351;28;20454;-69
2023/01/03 12:47:18;;;;;;;50.05;31.48;;;;;;;;;;5065550;28;20043;-68
2023/01/03 12:49:51;;;;;;;63.33;32.08;;;;;;;;;;5071619;28;20046;-68
2023/01/03 12:52:17;;;;;;;;;;;;;;;;;;5076293;28;20071;-69
2023/01/03 12:55:03;;;;;;;49.35;26.88;;;;;;;;;;5075308;28;19995;-68
2023/01/03 12:57:44;;;;;;;42.88;27.52;;;;;;;;;;5077663;28;20032;-68
2023/01/03 13:00:16;;;;;;;52.75;28.08;;;;;;;;;;5105639;27;20080;-69
2023/01/03 13:02:45;;;;;;;47.22;29.58;;;;;;;;;;5075573;28;21350;-68
2023/01/03 13:05:31;;;;;;;46.03;27.75;;;;;;;;;;5062591;28;20044;-68
2023/01/03 13:08:21;;;;;;;54.97;28.88;;;;;;;;;;5091993;28;20047;-69
2023/01/03 13:10:49;;;;;;;45.63;26.05;;;;;;;;;;5073661;28;20051;-68
2023/01/03 13:13:17;;;;;;;46.30;27.27;;;;;;;;;;5092694;28;20035;-68
2023/01/03 13:15:45;;;;;;;38.65;25.48;;;;;;;;;;5075624;28;20040;-69
2023/01/03 13:18:20;;;;;;;53.70;27.40;;;;;;;;;;5065932;28;20047;-69
2023/01/03 13:20:47;;;;;;;48.08;25.38;;;;;;;;;;5073209;28;20127;-68
2023/01/03 13:23:13;;;;;;;39.88;24.52;;;;;;;;;;5072877;28;20505;-68
2023/01/03 13:25:41;;;;;;;39.95;25.02;;;;;;;;;;5074344;28;20032;-69
2023/01/03 13:28:08;;;;;;;39.13;25.52;;;;;;;;;;5074842;28;20044;-69
2023/01/03 13:30:36;;;;;;;42.65;24.35;;;;;;;;;;5094948;28;20533;-69
2023/01/03 13:33:15;;;;;;;37.03;23.70;;;;;;;;;;5064034;28;20420;-68
2023/01/03 13:35:44;;;;;;;41.72;25.50;;;;;;;;;;5106129;27;20511;-68
2023/01/03 13:38:18;;;;;;;39.40;23.60;;;;;;;;;;5093636;28;20032;-69
2023/01/03 13:40:45;;;;;;;42.05;24.45;;;;;;;;;;5064490;28;20037;-69
2023/01/03 13:43:13;;;;;;;52.05;26.83;;;;;;;;;;5058612;28;20389;-69
2023/01/03 13:45:39;;;;;;;47.05;24.92;;;;;;;;;;5104598;27;20043;-69
2023/01/03 13:48:23;;;;;;;46.35;27.15;;;;;;;;;;5072634;28;20101;-69
2023/01/03 13:51:04;;;;;;;43.50;23.08;;;;;;;;;;5075958;28;20497;-68
2023/01/03 13:53:31;;;;;;;46.83;25.17;;;;;;;;;;5071929;28;20494;-69
2023/01/03 13:55:58;;;;;;;46.05;26.67;;;;;;;;;;5093996;28;20168;-69
2023/01/03 13:58:26;;;;;;;48.67;31.38;;;;;;;;;;5071623;28;20040;-69
2023/01/03 14:00:56;;;;;;;41.78;25.80;;;;;;;;;;5074347;28;20048;-69
2023/01/03 14:03:22;;;;;;;42.80;25.92;;;;;;;;;;5091702;28;20031;-69
2023/01/03 14:06:08;;;;;;;48.85;24.40;;;;;;;;;;5104375;28;20039;-68
2023/01/03 14:08:45;;;;;;;42.45;26.20;;;;;;;;;;5056759;28;20490;-68
2023/01/03 14:11:21;;;;;;;41.65;24.73;;;;;;;;;;5069596;28;20043;-69
2023/01/03 14:13:48;;;;;;;44.22;26.08;;;;;;;;;;5106170;27;20048;-69
2023/01/03 14:16:33;;;;;;;50.55;26.02;;;;;;;;;;5106178;27;20040;-69
2023/01/03 14:19:18;;;;;;;46.40;25.15;;;;;;;;;;5074355;28;20573;-69
2023/01/03 14:22:03;;;;;;;42.92;24.17;;;;;;;;;;5075037;28;20032;-69
2023/01/03 14:24:33;;;;;;;47.67;25.63;;;;;;;;;;5053011;28;20493;-68
2023/01/03 14:27:05;;;;;;;43.92;24.75;;;;;;;;;;5073580;28;20052;-69
2023/01/03 14:29:31;;;;;;;47.55;26.00;;;;;;;;;;5071857;28;20072;-69
2023/01/03 14:31:58;;;;;;;37.03;23.83;;;;;;;;;;5056513;28;20120;-69
2023/01/03 14:34:29;;;;;;;35.67;22.08;;;;;;;;;;5088630;28;20040;-69
2023/01/03 14:37:06;;;;;;;40.72;23.70;;;;;;;;;;5078529;28;20036;-68
2023/01/03 14:39:33;;;;;;;40.15;23.05;;;;;;;;;;5070603;28;20040;-68
2023/01/03 14:42:03;;;;;;;38.22;23.58;;;;;;;;;;5076773;28;20489;-69
2023/01/03 14:44:30;;;;;;;36.88;21.35;;;;;;;;;;5064049;28;20482;-69
2023/01/03 14:46:57;;;;;;;41.10;23.33;;;;;;;;;;5073573;28;20123;-68
2023/01/03 14:49:36;;;;;;;37.40;22.45;;;;;;;;;;5078897;28;20485;-69
2023/01/03 14:52:07;;;;;;;38.55;21.83;;;;;;;;;;5099727;28;20533;-69
2023/01/03 14:54:34;;;;;;;36.28;21.15;;;;;;;;;;5053737;28;20119;-69
2023/01/03 14:57:01;;;;;;;47.10;22.77;;;;;;;;;;5072452;28;20032;-69
2023/01/03 14:59:27;;;;;;;41.63;22.25;;;;;;;;;;5075566;28;20502;-69
2023/01/03 15:01:53;;;;;;;33.35;21.02;;;;;;;;;;5075881;28;20031;-68
2023/01/03 15:04:19;;;;;;;38.58;21.60;;;;;;;;;;5060048;28;20058;-69
2023/01/03 15:06:56;;;;;;;37.83;19.38;;;;;;;;;;5091190;28;20054;-69
2023/01/03 15:09:23;;;;;;;36.00;21.52;;;;;;;;;;5072993;28;20043;-69
2023/01/03 15:11:57;;;;;;;33.08;20.27;;;;;;;;;;5066133;28;20486;-69
2023/01/03 15:14:25;;;;;;;35.55;22.27;;;;;;;;;;5104533;28;20498;-69
2023/01/03 15:16:52;;;;;;;35.70;20.88;;;;;;;;;;5072775;28;20094;-69
2023/01/03 15:19:25;;;;;;;31.90;20.30;;;;;;;;;;5061763;28;20035;-69
2023/01/03 15:22:05;;;;;;;33.92;18.63;;;;;;;;;;5069057;28;20040;-69
2023/01/03 15:24:32;;;;;;;31.80;18.50;;;;;;;;;;5099063;28;20032;-69
2023/01/03 15:26:58;;;;;;;40.88;20.33;;;;;;;;;;5077667;28;20052;-69
2023/01/03 15:29:28;;;;;;;31.67;20.05;;;;;;;;;;5072310;28;20139;-69
2023/01/03 15:31:54;;;;;;;27.55;19.52;;;;;;;;;;5073036;28;20714;-69
2023/01/03 15:34:29;;;;;;;37.63;19.63;;;;;;;;;;5074537;28;20059;-69
2023/01/03 15:37:14;;;;;;;28.50;18.80;;;;;;;;;;5073016;28;20040;-69
2023/01/03 15:39:48;;;;;;;31.33;19.25;;;;;;;;;;5103429;27;20420;-69